Time;durP1;ratioP1;P1;durP2;ratioP2;P2;SDS_P1;SDS_P2;PMS_P1;PMS_P2;Temp;Humidity;BMP_temperature;BMP_pressure;BME280_temperature;BME280_humidity;BME280_pressure;Samples;Min_cycle;Max_cycle;Signal;HPM_P1;HPM_P2
2022/10/02 00:00:43;;;;;;;4.08;1.72;;;;;;;13.72;100.00;99705.17;2520665;93;21078;-90
2022/10/02 00:04:56;;;;;;;2.05;1.32;;;;;;;13.69;100.00;99721.05;2527520;92;21072;-90
2022/10/02 00:09:02;;;;;;;3.45;1.62;;;;;;;13.66;100.00;99727.20;2535739;92;21620;-90
2022/10/02 00:13:08;;;;;;;2.22;1.72;;;;;;;13.61;100.00;99731.68;2514351;91;21137;-91
2022/10/02 00:17:23;;;;;;;3.55;1.62;;;;;;;13.56;100.00;99738.86;2481205;94;21182;-89
2022/10/02 00:22:02;;;;;;;4.28;2.30;;;;;;;13.60;100.00;99745.22;2591089;91;21078;-90
2022/10/02 00:26:27;;;;;;;6.70;2.08;;;;;;;13.60;100.00;99751.39;2585478;85;21641;-90
2022/10/02 00:30:33;;;;;;;3.80;1.55;;;;;;;13.55;100.00;99750.52;2717549;86;21053;-91
2022/10/02 00:35:03;;;;;;;;;;;;;;;13.47;100.00;99745.66;2692980;87;21049;-90
2022/10/02 00:39:37;;;;;;;6.58;2.17;;;;;;;13.43;100.00;99751.28;2678769;86;20596;-91
2022/10/02 00:43:50;;;;;;;3.22;2.58;;;;;;;13.35;100.00;99753.89;2700272;87;21137;-92
2022/10/02 00:48:17;;;;;;;4.08;1.77;;;;;;;13.26;100.00;99765.02;2820348;83;21589;-92
2022/10/02 00:52:32;;;;;;;2.55;1.37;;;;;;;13.26;100.00;99777.03;2800673;83;21035;-92
2022/10/02 00:57:05;;;;;;;3.60;1.92;;;;;;;13.20;100.00;99783.00;2783565;83;21041;-90
2022/10/02 01:01:24;;;;;;;2.62;1.70;;;;;;;13.18;100.00;99781.47;2769173;85;21013;-91
2022/10/02 01:05:26;;;;;;;8.70;2.47;;;;;;;13.11;100.00;99788.77;2655424;89;21130;-90
2022/10/02 01:09:27;;;;;;;5.28;2.45;;;;;;;13.14;100.00;99799.62;2630051;87;21622;-91
2022/10/02 01:13:30;;;;;;;2.25;1.57;;;;;;;13.11;100.00;99795.45;2658329;89;21582;-91
2022/10/02 01:17:33;;;;;;;2.55;1.37;;;;;;;13.17;100.00;99803.34;2591084;90;21148;-91
2022/10/02 01:21:42;;;;;;;1.80;0.90;;;;;;;13.17;100.00;99801.16;2657291;88;21061;-91
2022/10/02 01:25:43;;;;;;;2.85;2.17;;;;;;;13.22;100.00;99813.55;2658329;88;21085;-88
2022/10/02 01:29:48;;;;;;;2.35;1.27;;;;;;;13.14;100.00;99819.66;2655014;88;21669;-90
2022/10/02 01:33:50;;;;;;;3.83;1.40;;;;;;;13.16;100.00;99827.01;2632809;88;21065;-88
2022/10/02 01:37:54;;;;;;;6.22;1.50;;;;;;;13.29;100.00;99831.47;2663544;87;21089;-90
2022/10/02 01:41:55;;;;;;;4.62;1.45;;;;;;;13.26;100.00;99831.78;2740398;83;21531;-90
2022/10/02 01:46:42;;;;;;;8.43;1.52;;;;;;;13.25;100.00;99830.59;2779921;83;21034;-91
2022/10/02 01:50:54;;;;;;;2.05;1.35;;;;;;;13.19;100.00;99836.08;2780078;84;21069;-91
2022/10/02 01:55:22;;;;;;;4.58;1.52;;;;;;;13.16;100.00;99847.04;2739433;84;21620;-91
2022/10/02 01:59:38;;;;;;;4.70;2.33;;;;;;;13.08;100.00;99864.33;2746846;84;21041;-92
2022/10/02 02:03:53;;;;;;;1.90;1.10;;;;;;;13.07;100.00;99864.84;2763708;84;21073;-91
2022/10/02 02:08:12;;;;;;;2.30;1.75;;;;;;;13.07;100.00;99862.66;2778398;84;21119;-91
2022/10/02 02:12:39;;;;;;;2.58;1.20;;;;;;;13.05;100.00;99873.48;2697026;86;21148;-92
2022/10/02 02:16:47;;;;;;;7.78;2.35;;;;;;;12.95;100.00;99872.21;2703502;86;20991;-89
2022/10/02 02:20:52;;;;;;;4.15;1.35;;;;;;;12.95;100.00;99884.23;2705558;86;21046;-89
2022/10/02 02:25:02;;;;;;;4.83;1.57;;;;;;;12.89;100.00;99900.03;2723304;86;21077;-90
2022/10/02 02:29:08;;;;;;;3.92;1.85;;;;;;;12.76;100.00;99891.03;2719437;86;21670;-91
2022/10/02 02:33:25;;;;;;;7.53;2.45;;;;;;;12.77;100.00;99897.56;2696738;86;21119;-90
2022/10/02 02:37:31;;;;;;;3.87;1.60;;;;;;;12.81;100.00;99908.78;2702671;86;21595;-90
2022/10/02 02:41:40;;;;;;;5.25;1.95;;;;;;;12.80;100.00;99905.77;2700162;86;21055;-90
2022/10/02 02:45:50;;;;;;;4.45;2.20;;;;;;;12.68;100.00;99909.97;2695970;86;21157;-90
2022/10/02 02:50:03;;;;;;;4.53;2.20;;;;;;;12.69;100.00;99907.64;2734629;85;21027;-91
2022/10/02 02:54:18;;;;;;;10.35;2.50;;;;;;;12.81;100.00;99904.27;2763398;84;21132;-91
2022/10/02 02:58:33;;;;;;;;;;;;;;;12.84;100.00;99911.97;2795859;84;21125;-91
2022/10/02 03:02:34;;;;;;;4.42;2.17;;;;;;;13.03;100.00;99912.84;2714671;85;20134;-90
2022/10/02 03:06:42;;;;;;;4.75;2.40;;;;;;;13.21;100.00;99920.03;2749577;86;21051;-91
2022/10/02 03:11:12;;;;;;;5.87;1.75;;;;;;;13.25;100.00;99923.59;2727891;86;21067;-91
2022/10/02 03:15:27;;;;;;;4.80;1.40;;;;;;;13.34;100.00;99926.33;2705441;86;21075;-90
2022/10/02 03:19:45;;;;;;;10.00;2.62;;;;;;;13.40;100.00;99933.75;2727545;86;21087;-90
2022/10/02 03:24:07;;;;;;;5.00;1.82;;;;;;;13.50;100.00;99931.85;2733438;86;21005;-90
2022/10/02 03:28:40;;;;;;;8.38;2.70;;;;;;;13.58;100.00;99931.08;2701189;86;21559;-90
2022/10/02 03:32:45;;;;;;;6.87;2.92;;;;;;;13.63;100.00;99933.30;2723329;86;21112;-91
2022/10/02 03:36:47;;;;;;;6.22;2.72;;;;;;;13.66;100.00;99935.18;2714044;86;21083;-90
2022/10/02 03:40:51;;;;;;;7.22;2.98;;;;;;;13.71;100.00;99938.22;2788856;84;21037;-89
2022/10/02 03:44:51;;;;;;;5.85;2.27;;;;;;;13.74;100.00;99940.23;2792464;84;21013;-90
2022/10/02 03:48:55;;;;;;;5.92;2.08;;;;;;;13.72;100.00;99935.03;2746760;83;21067;-90
2022/10/02 03:52:55;;;;;;;4.45;1.67;;;;;;;13.68;100.00;99934.52;2818914;83;21005;-91
2022/10/02 03:57:03;;;;;;;11.35;2.77;;;;;;;13.61;100.00;99945.98;2828778;83;21108;-89
2022/10/02 04:01:19;;;;;;;3.10;2.00;;;;;;;13.48;100.00;99947.20;2783409;83;21099;-91
2022/10/02 04:05:47;;;;;;;5.25;2.50;;;;;;;13.42;100.00;99948.61;2763417;84;21135;-90
2022/10/02 04:10:15;;;;;;;4.50;2.22;;;;;;;13.36;100.00;99952.38;2768743;83;21108;-90
2022/10/02 04:14:27;;;;;;;4.90;2.00;;;;;;;13.29;100.00;99954.34;2766205;84;21077;-91
2022/10/02 04:18:34;;;;;;;15.05;2.58;;;;;;;13.23;100.00;99965.64;2762692;84;21045;-91
2022/10/02 04:22:43;;;;;;;4.12;2.10;;;;;;;13.10;100.00;99958.47;2786996;84;21030;-91
2022/10/02 04:26:59;;;;;;;6.47;2.25;;;;;;;13.05;100.00;99966.11;2779200;84;21814;-92
2022/10/02 04:31:01;;;;;;;6.60;2.25;;;;;;;13.00;100.00;99967.40;2772528;84;21600;-91
2022/10/02 04:35:29;;;;;;;4.80;1.47;;;;;;;12.95;100.00;99971.50;2773562;84;21061;-91
2022/10/02 04:39:56;;;;;;;4.62;1.98;;;;;;;12.95;100.00;99974.17;2791803;84;21018;-92
2022/10/02 04:44:05;;;;;;;2.58;1.77;;;;;;;12.95;100.00;99976.84;2773554;84;21049;-90
2022/10/02 04:48:53;;;;;;;8.08;2.10;;;;;;;12.89;100.00;99981.45;2781764;84;21010;-91
2022/10/02 04:53:32;;;;;;;3.98;1.62;;;;;;;12.81;100.00;99978.18;2778181;84;21553;-91
2022/10/02 04:58:00;;;;;;;4.50;2.05;;;;;;;12.81;100.00;99972.84;2772466;84;21085;-91
2022/10/02 05:02:22;;;;;;;2.25;1.20;;;;;;;12.91;100.00;99974.12;2783799;84;21002;-90
2022/10/02 05:06:50;;;;;;;5.08;2.47;;;;;;;12.97;100.00;99981.05;2783645;84;21002;-91
2022/10/02 05:10:59;;;;;;;4.55;2.02;;;;;;;13.05;100.00;99984.80;2770150;84;21069;-91
2022/10/02 05:15:18;;;;;;;8.43;2.75;;;;;;;13.09;100.00;99979.02;2787915;84;21065;-91
2022/10/02 05:19:57;;;;;;;3.50;1.47;;;;;;;13.12;100.00;99974.70;2791854;84;21014;-92
2022/10/02 05:24:10;;;;;;;4.25;1.57;;;;;;;13.11;100.00;99973.50;2782145;84;21061;-91
2022/10/02 05:28:32;;;;;;;9.43;2.52;;;;;;;13.16;100.00;99985.08;2774654;84;21089;-91
2022/10/02 05:32:58;;;;;;;12.33;2.08;;;;;;;13.16;100.00;99984.57;2747587;84;21045;-91
2022/10/02 05:37:18;;;;;;;;;;;;;;;13.28;100.00;99989.23;2758334;84;21049;-92
2022/10/02 05:41:54;;;;;;;3.72;2.20;;;;;;;13.36;100.00;99987.97;2767347;84;20107;-91
2022/10/02 05:46:03;;;;;;;4.20;2.08;;;;;;;13.47;100.00;99995.47;2778010;83;21100;-89
2022/10/02 05:50:16;;;;;;;4.37;1.95;;;;;;;13.41;100.00;99995.53;2811765;83;21019;-92
2022/10/02 05:54:41;;;;;;;6.65;1.98;;;;;;;13.41;100.00;99996.88;2783219;83;21052;-91
2022/10/02 05:58:56;;;;;;;8.15;1.95;;;;;;;13.45;100.00;100000.09;2807240;83;21547;-91
2022/10/02 06:03:25;;;;;;;23.92;2.50;;;;;;;13.54;100.00;99997.86;2789147;83;21019;-91
2022/10/02 06:07:28;;;;;;;4.35;1.57;;;;;;;13.61;100.00;99999.43;2778931;85;21534;-91
2022/10/02 06:11:37;;;;;;;2.25;1.20;;;;;;;13.76;100.00;100003.25;2786912;85;21054;-91
2022/10/02 06:16:02;;;;;;;2.98;1.32;;;;;;;13.88;100.00;100012.35;2820253;83;21067;-91
2022/10/02 06:20:29;;;;;;;8.00;2.30;;;;;;;13.98;99.80;100010.45;2831411;83;20992;-89
2022/10/02 06:24:39;;;;;;;4.90;2.00;;;;;;;14.09;99.60;100009.36;2753536;85;21102;-91
2022/10/02 06:28:55;;;;;;;2.22;1.95;;;;;;;14.23;98.96;100014.64;2796093;83;21025;-91
2022/10/02 06:33:19;;;;;;;4.53;2.08;;;;;;;14.46;97.40;100021.66;2796356;83;21031;-90
2022/10/02 06:37:28;;;;;;;4.60;2.35;;;;;;;14.68;96.19;100020.26;2803040;83;21088;-92
2022/10/02 06:41:55;;;;;;;6.65;1.80;;;;;;;14.90;94.30;100014.03;2722290;84;21133;-92
2022/10/02 06:46:29;;;;;;;5.08;2.25;;;;;;;15.05;93.18;100016.95;2707086;85;21117;-90
2022/10/02 06:50:56;;;;;;;3.77;1.92;;;;;;;15.21;93.37;100014.83;2607544;90;21071;-91
2022/10/02 06:55:25;;;;;;;3.52;1.77;;;;;;;15.28;91.40;100006.45;2581234;90;21144;-92
2022/10/02 06:59:55;;;;;;;11.55;3.12;;;;;;;15.31;91.62;100013.34;2596115;89;21099;-91
2022/10/02 07:04:24;;;;;;;5.15;1.90;;;;;;;15.34;91.72;100016.21;2603139;90;21685;-93
2022/10/02 07:09:20;;;;;;;4.03;1.65;;;;;;;15.36;92.07;100014.20;2597881;90;21058;-91
2022/10/02 07:13:57;;;;;;;8.30;2.65;;;;;;;15.54;91.67;100013.57;2587209;90;21657;-90
2022/10/02 07:18:41;;;;;;;4.35;2.60;;;;;;;15.59;90.98;100026.45;2594958;87;21064;-91
2022/10/02 07:23:05;;;;;;;4.28;2.02;;;;;;;15.57;91.23;100032.48;2574533;88;21086;-92
2022/10/02 07:27:38;;;;;;;3.35;2.47;;;;;;;15.50;90.88;100024.78;2668216;86;21195;-91
2022/10/02 07:32:00;;;;;;;4.42;2.15;;;;;;;15.49;91.63;100042.69;2702915;85;21127;-91
2022/10/02 07:36:25;;;;;;;5.40;2.33;;;;;;;15.46;90.58;100038.18;2704541;86;21107;-92
2022/10/02 07:40:58;;;;;;;6.83;2.27;;;;;;;15.54;91.78;100039.03;2665010;86;21060;-89
2022/10/02 07:45:28;;;;;;;5.97;1.82;;;;;;;15.93;91.66;100036.77;2705014;86;21050;-92
2022/10/02 07:49:51;;;;;;;6.00;2.55;;;;;;;16.08;88.78;100043.64;2715939;85;21144;-91
2022/10/02 07:53:58;;;;;;;7.47;4.47;;;;;;;16.03;88.10;100043.31;2717597;85;21060;-88
2022/10/02 07:58:23;;;;;;;44.35;31.65;;;;;;;15.92;87.25;100029.73;2723030;85;21070;-91
2022/10/02 08:02:30;;;;;;;39.48;26.17;;;;;;;15.83;88.58;100034.22;2760237;84;21091;-91
2022/10/02 08:06:32;;;;;;;36.40;16.42;;;;;;;15.89;90.06;100043.45;2764633;83;21059;-89
2022/10/02 08:10:38;;;;;;;19.92;13.50;;;;;;;16.13;90.23;100039.94;2761504;85;21085;-92
2022/10/02 08:14:42;;;;;;;19.25;17.17;;;;;;;16.45;86.80;100021.28;2770501;84;20987;-89
2022/10/02 08:18:51;;;;;;;8.05;5.00;;;;;;;16.70;87.52;100016.69;2767105;84;21561;-91
2022/10/02 08:23:01;;;;;;;6.60;3.98;;;;;;;16.81;83.72;100007.42;2766319;84;21059;-91
2022/10/02 08:27:10;;;;;;;7.22;4.72;;;;;;;16.81;83.40;99996.67;2777850;83;21513;-90
2022/10/02 08:31:13;;;;;;;7.85;4.65;;;;;;;16.72;82.86;100003.10;2760598;84;21089;-90
2022/10/02 08:35:18;;;;;;;10.28;4.03;;;;;;;16.88;85.02;99992.80;2769694;83;21036;-90
2022/10/02 08:39:49;;;;;;;6.75;3.50;;;;;;;16.88;81.60;99998.17;2766051;84;21045;-90
2022/10/02 08:44:37;;;;;;;9.35;5.80;;;;;;;16.90;83.45;100000.17;2726675;85;21019;-90
2022/10/02 08:49:15;;;;;;;6.33;3.77;;;;;;;16.89;82.81;99997.98;2695054;86;21050;-95
2022/10/02 08:58:32;;;;;;;10.98;4.85;;;;;;;17.06;85.17;99993.91;2691703;84;71104;-61
2022/10/02 09:03:01;;;;;;;9.75;3.35;;;;;;;17.21;85.39;100000.22;2762077;85;21025;-61
2022/10/02 09:07:55;;;;;;;9.40;3.80;;;;;;;17.29;83.85;99976.48;2733899;86;21061;-60
2022/10/02 09:12:28;;;;;;;6.30;3.85;;;;;;;17.36;85.20;99990.06;2717049;87;21045;-61
2022/10/02 09:16:57;;;;;;;4.83;2.58;;;;;;;17.41;84.93;99984.98;2723212;87;21053;-61
2022/10/02 09:21:05;;;;;;;5.50;2.87;;;;;;;17.58;84.83;99993.76;2798564;84;21040;-63
2022/10/02 09:25:12;;;;;;;6.45;2.45;;;;;;;17.51;83.21;99985.59;2791325;84;21008;-59
2022/10/02 09:30:05;;;;;;;8.15;3.22;;;;;;;17.44;82.95;99984.62;2776063;82;21068;-58
2022/10/02 09:34:49;;;;;;;3.90;2.37;;;;;;;17.21;85.16;99992.16;2715172;86;21112;-59
2022/10/02 09:39:23;;;;;;;6.90;3.67;;;;;;;16.92;83.34;99992.28;2817642;82;21090;-61
2022/10/02 09:44:13;;;;;;;16.35;2.98;;;;;;;16.85;84.08;99987.25;2786824;84;20966;-58
2022/10/02 09:49:01;;;;;;;14.20;2.45;;;;;;;16.90;84.72;99986.25;2815915;84;21046;-58
2022/10/02 09:53:28;;;;;;;6.08;2.35;;;;;;;17.16;84.81;99977.07;2818444;83;21022;-58
2022/10/02 09:58:01;;;;;;;8.20;2.02;;;;;;;17.47;84.41;99984.78;2751175;86;21039;-58
2022/10/02 10:02:31;;;;;;;3.47;1.80;;;;;;;17.69;80.00;99983.12;2753068;86;21106;-59
2022/10/02 10:07:13;;;;;;;4.42;2.30;;;;;;;17.59;79.95;99967.72;2750361;86;21012;-59
2022/10/02 10:11:31;;;;;;;5.50;2.17;;;;;;;17.78;79.55;99957.81;2758855;84;21030;-59
2022/10/02 10:16:06;;;;;;;10.48;3.10;;;;;;;17.95;81.28;99950.42;2724577;87;21489;-59
2022/10/02 10:20:50;;;;;;;5.00;1.92;;;;;;;18.10;80.12;99947.80;2750386;86;20989;-58
2022/10/02 10:25:34;;;;;;;5.78;2.10;;;;;;;18.34;80.54;99962.02;2757229;84;21051;-57
2022/10/02 10:30:00;;;;;;;4.03;1.20;;;;;;;18.37;76.48;99947.34;2762377;85;20978;-61
2022/10/02 10:34:34;;;;;;;5.28;1.40;;;;;;;18.37;75.09;99954.92;2801838;83;20978;-58
2022/10/02 10:39:02;;;;;;;9.70;2.17;;;;;;;18.55;75.44;99941.59;2779023;84;21037;-60
2022/10/02 10:43:31;;;;;;;11.18;2.22;;;;;;;18.48;72.47;99940.68;2821933;83;21029;-58
2022/10/02 10:48:26;;;;;;;6.58;2.60;;;;;;;18.29;74.97;99937.52;2750452;85;21252;-59
2022/10/02 10:53:04;;;;;;;6.05;2.10;;;;;;;18.23;76.95;99925.63;2752543;85;20993;-59
2022/10/02 10:57:52;;;;;;;5.17;1.67;;;;;;;18.12;75.54;99928.27;2818617;83;21042;-60
2022/10/02 11:02:25;;;;;;;6.55;1.62;;;;;;;18.04;75.81;99906.80;2756057;84;21058;-59
2022/10/02 11:06:41;;;;;;;8.23;1.95;;;;;;;17.90;74.49;99903.58;2755586;85;20984;-58
2022/10/02 11:11:14;;;;;;;5.58;2.70;;;;;;;17.64;76.69;99924.98;2741540;85;20997;-61
2022/10/02 11:15:48;;;;;;;4.22;2.25;;;;;;;17.67;77.64;99923.27;2711879;86;21012;-59
2022/10/02 11:20:07;;;;;;;5.72;1.80;;;;;;;17.76;77.35;99907.39;2757798;85;21023;-58
2022/10/02 11:24:34;;;;;;;4.95;2.25;;;;;;;17.83;77.61;99911.55;2755384;85;21073;-58
2022/10/02 11:28:59;;;;;;;10.45;2.30;;;;;;;17.66;78.32;99920.25;2740105;85;69288;-87
2022/10/02 11:33:47;;;;;;;1.98;1.40;;;;;;;17.14;82.42;99919.98;2748031;86;21043;-92
2022/10/02 11:38:03;;;;;;;5.50;1.80;;;;;;;16.80;81.85;99932.73;2773832;85;21003;-91
2022/10/02 11:42:17;;;;;;;;;;;;;;;16.47;82.35;99945.44;2784055;83;21108;-91
2022/10/02 11:46:45;;;;;;;3.62;2.20;;;;;;;15.93;88.99;99970.53;2778935;85;20227;-91
2022/10/02 11:51:16;;;;;;;0.90;0.50;;;;;;;15.23;96.97;99967.75;2760921;84;22154;-91
2022/10/02 11:55:32;;;;;;;2.30;0.72;;;;;;;14.69;98.22;99969.73;2767236;85;21597;-91
2022/10/02 12:00:05;;;;;;;0.60;0.35;;;;;;;14.52;100.00;99970.16;2778132;85;21037;-90
2022/10/02 12:04:32;;;;;;;1.55;0.40;;;;;;;14.31;97.67;99969.20;2775328;85;21058;-91
2022/10/02 12:09:23;;;;;;;1.45;0.62;;;;;;;14.41;100.00;99982.47;2774721;84;21537;-89
2022/10/02 12:14:00;;;;;;;0.70;0.53;;;;;;;14.56;100.00;99968.02;2763116;85;21013;-91
2022/10/02 12:18:32;;;;;;;2.50;1.05;;;;;;;14.68;100.00;99960.02;2746495;86;21103;-90
2022/10/02 12:27:49;;;;;;;2.67;1.00;;;;;;;15.25;100.00;99954.55;2742701;86;21124;-89
2022/10/02 12:32:22;;;;;;;4.10;1.22;;;;;;;15.48;100.00;99937.81;2747504;85;21062;-90
2022/10/02 12:36:40;;;;;;;13.80;1.57;;;;;;;15.71;100.00;99935.31;2676422;87;21119;-91
2022/10/02 12:41:16;;;;;;;2.80;1.02;;;;;;;16.02;100.00;99928.45;2666525;87;21108;-90
2022/10/02 12:45:42;;;;;;;2.45;0.90;;;;;;;16.15;100.00;99921.73;2559180;91;21044;-90
2022/10/02 12:50:10;;;;;;;1.52;0.70;;;;;;;16.42;99.75;99915.93;2524222;92;21080;-90
2022/10/02 12:54:32;;;;;;;3.35;1.50;;;;;;;16.70;100.00;99914.64;2533164;92;21550;-91
2022/10/02 12:59:00;;;;;;;1.45;0.90;;;;;;;16.82;97.64;99900.31;2548053;92;21111;-89
2022/10/02 13:03:25;;;;;;;3.83;1.50;;;;;;;16.94;100.00;99904.28;2515858;93;21113;-89
2022/10/02 13:08:05;;;;;;;3.00;1.77;;;;;;;17.11;99.43;99906.91;2673020;86;21096;-90
2022/10/02 13:12:39;;;;;;;4.67;2.72;;;;;;;17.23;99.03;99888.52;2666087;87;21653;-91
2022/10/02 13:17:30;;;;;;;6.40;3.45;;;;;;;17.61;100.00;99886.34;2665994;88;21057;-88
2022/10/02 13:21:49;;;;;;;9.88;2.75;;;;;;;17.81;96.74;99886.16;2610421;89;21138;-91
2022/10/02 13:26:14;;;;;;;5.47;2.60;;;;;;;18.07;96.14;99874.14;2696482;87;21029;-89
2022/10/02 13:30:20;;;;;;;6.57;2.20;;;;;;;18.18;92.04;99864.80;2703841;86;21090;-90
2022/10/02 13:35:00;;;;;;;2.92;2.42;;;;;;;18.30;93.14;99857.58;2685446;85;21096;-92
2022/10/02 13:39:23;;;;;;;5.25;2.22;;;;;;;18.35;92.65;99849.27;2718550;86;21111;-91
2022/10/02 13:43:45;;;;;;;3.98;2.15;;;;;;;18.49;88.23;99843.53;2715152;86;21034;-92
2022/10/02 13:48:17;;;;;;;7.10;2.30;;;;;;;18.65;89.14;99831.69;2714719;86;21064;-90
2022/10/02 13:52:53;;;;;;;3.67;1.95;;;;;;;18.89;89.06;99826.98;2716699;85;21601;-92
2022/10/02 13:57:12;;;;;;;9.98;3.42;;;;;;;19.02;88.08;99828.16;2759726;84;21118;-90
2022/10/02 14:01:30;;;;;;;2.90;1.90;;;;;;;19.07;87.71;99833.83;2746017;85;21048;-91
2022/10/02 14:05:56;;;;;;;6.10;2.58;;;;;;;19.12;87.72;99823.29;2727076;85;21102;-92
2022/10/02 14:10:15;;;;;;;6.12;2.60;;;;;;;19.18;87.53;99829.24;2738246;85;21017;-91
2022/10/02 14:14:37;;;;;;;4.75;3.08;;;;;;;19.04;87.08;99818.86;2725449;85;21101;-90
2022/10/02 14:19:12;;;;;;;4.25;2.42;;;;;;;18.93;85.07;99814.79;2687414;86;21023;-90
2022/10/02 14:23:40;;;;;;;9.53;2.67;;;;;;;18.50;83.61;99817.45;2729177;85;21053;-91
2022/10/02 14:28:32;;;;;;;11.05;3.42;;;;;;;18.09;88.26;99829.56;2731669;85;21625;-88
2022/10/02 14:32:54;;;;;;;6.03;2.87;;;;;;;17.40;91.85;99838.13;2710054;86;21088;-91
2022/10/02 14:37:26;;;;;;;4.62;2.42;;;;;;;16.91;94.52;99861.66;2714493;85;21068;-89
2022/10/02 14:42:05;;;;;;;2.52;1.87;;;;;;;16.32;96.43;99877.73;2761856;83;21116;-86
2022/10/02 14:46:26;;;;;;;5.75;1.90;;;;;;;15.75;92.80;99874.64;2790683;83;20997;-89
2022/10/02 14:50:51;;;;;;;8.15;2.70;;;;;;;15.23;99.91;99868.14;2766325;84;21155;-90
2022/10/02 14:55:16;;;;;;;6.45;2.60;;;;;;;15.08;100.00;99864.44;2783233;83;21072;-91
2022/10/02 14:59:36;;;;;;;5.03;2.02;;;;;;;15.06;100.00;99866.44;2760935;84;21101;-89
2022/10/02 15:03:46;;;;;;;5.95;1.55;;;;;;;15.13;100.00;99859.41;2765209;84;21065;-88
2022/10/02 15:07:47;;;;;;;6.80;2.92;;;;;;;15.18;100.00;99851.73;2784240;83;21052;-88
2022/10/02 15:12:09;;;;;;;5.00;2.62;;;;;;;15.12;100.00;99845.68;2785393;84;21128;-93
2022/10/02 15:20:58;;;;;;;5.47;2.37;;;;;;;14.86;100.00;99858.71;2794092;83;21556;-93
2022/10/02 15:25:15;;;;;;;5.42;1.90;;;;;;;14.82;100.00;99867.56;2791481;83;21528;-94
2022/10/02 15:29:28;;;;;;;8.45;2.80;;;;;;;14.70;100.00;99871.02;2787853;83;21080;-93
2022/10/02 15:33:47;;;;;;;6.05;3.12;;;;;;;14.53;100.00;99886.20;2745568;85;21064;-94
2022/10/02 15:38:13;;;;;;;3.90;1.52;;;;;;;14.50;100.00;99881.66;2646536;86;21019;-94
2022/10/02 15:42:50;;;;;;;3.70;2.45;;;;;;;14.37;100.00;99890.99;2683086;86;21027;-93
2022/10/02 15:47:18;;;;;;;4.20;1.72;;;;;;;14.46;100.00;99897.70;2671842;87;21117;-93
2022/10/02 15:51:48;;;;;;;4.70;1.70;;;;;;;14.43;100.00;99899.70;2685443;87;21007;-93
2022/10/02 15:56:11;;;;;;;1.67;1.22;;;;;;;14.37;100.00;99896.83;2684609;87;21138;-91
2022/10/02 16:00:18;;;;;;;3.58;1.92;;;;;;;14.31;100.00;99895.63;2683506;88;21028;-94
2022/10/02 16:04:24;;;;;;;3.33;1.72;;;;;;;14.39;100.00;99898.36;2686942;87;21078;-91
2022/10/02 16:09:06;;;;;;;3.90;2.00;;;;;;;14.26;100.00;99899.28;2663795;87;21090;-94
2022/10/02 16:13:33;;;;;;;4.90;2.60;;;;;;;14.17;100.00;99905.09;2718499;84;21031;-94
2022/10/02 16:18:16;;;;;;;2.92;2.02;;;;;;;14.13;100.00;99915.26;2765645;85;21076;-94
2022/10/02 16:22:37;;;;;;;2.47;1.90;;;;;;;14.04;100.00;99918.89;2765546;85;21636;-94
2022/10/02 16:27:13;;;;;;;3.75;2.58;;;;;;;13.96;100.00;99929.55;2765607;84;21545;-94
2022/10/02 16:31:35;;;;;;;6.72;2.92;;;;;;;13.84;100.00;99928.94;2758950;85;21088;-91
2022/10/02 16:36:03;;;;;;;4.15;2.15;;;;;;;13.74;100.00;99926.36;2738088;85;21053;-93
2022/10/02 16:40:50;;;;;;;6.97;1.95;;;;;;;13.68;100.00;99933.67;2759902;85;21086;-95
2022/10/02 16:45:34;;;;;;;3.62;2.00;;;;;;;13.59;100.00;99925.26;2741036;84;21568;-94
2022/10/02 16:49:58;;;;;;;2.33;1.77;;;;;;;13.49;100.00;99934.70;2753175;85;21039;-94
2022/10/02 16:54:17;;;;;;;2.62;1.87;;;;;;;13.39;100.00;99952.11;2752998;86;21010;-95
2022/10/02 16:58:26;;;;;;;4.12;3.05;;;;;;;13.37;100.00;99948.75;2753324;86;21008;-93
2022/10/02 17:02:45;;;;;;;7.42;3.58;;;;;;;13.28;100.00;99954.00;2735682;85;21041;-94
2022/10/02 17:07:07;;;;;;;7.97;2.87;;;;;;;13.21;100.00;99960.95;2753614;85;21021;-94
2022/10/02 17:11:29;;;;;;;9.05;3.95;;;;;;;13.14;100.00;99961.19;2770167;85;21547;-92
2022/10/02 17:15:42;;;;;;;5.85;2.47;;;;;;;13.09;100.00;99959.47;2800826;83;21111;-93
2022/10/02 17:20:13;;;;;;;5.37;2.45;;;;;;;13.04;100.00;99959.91;2791109;84;21502;-94
2022/10/02 17:25:09;;;;;;;3.17;1.87;;;;;;;13.00;100.00;99959.39;2786402;84;21092;-94
2022/10/02 17:29:18;;;;;;;2.65;2.45;;;;;;;13.00;100.00;99963.40;2800200;83;21553;-93
2022/10/02 17:33:20;;;;;;;7.03;2.22;;;;;;;12.99;100.00;99971.06;2793944;84;21120;-94
2022/10/02 17:38:03;;;;;;;3.42;1.92;;;;;;;13.00;100.00;99976.75;2810175;84;21079;-95
2022/10/02 17:42:40;;;;;;;4.72;2.75;;;;;;;13.02;100.00;99978.42;2790481;84;21049;-93
2022/10/02 17:47:23;;;;;;;9.13;2.90;;;;;;;13.05;100.00;99987.47;2770670;83;20996;-95
2022/10/02 17:51:52;;;;;;;3.00;2.45;;;;;;;13.07;100.00;99982.33;2775415;85;21069;-94
2022/10/02 17:56:28;;;;;;;4.00;2.42;;;;;;;13.11;100.00;99976.17;2790453;84;21039;-93
2022/10/02 18:00:34;;;;;;;3.83;3.22;;;;;;;13.10;100.00;99982.51;2791910;84;39216;-94
2022/10/02 18:05:16;;;;;;;6.47;2.77;;;;;;;13.04;100.00;99992.46;2821898;83;21086;-92
2022/10/02 18:09:57;;;;;;;4.25;3.20;;;;;;;13.02;100.00;99990.44;2820001;83;21056;-93
2022/10/02 18:14:15;;;;;;;7.58;3.12;;;;;;;12.97;100.00;99998.89;2819766;83;21074;-93
2022/10/02 18:18:39;;;;;;;7.28;2.98;;;;;;;12.92;100.00;99999.32;2753252;86;21056;-92
2022/10/02 18:22:53;;;;;;;5.08;3.12;;;;;;;12.76;100.00;100001.78;2787385;84;21079;-92
2022/10/02 18:27:03;;;;;;;3.42;3.12;;;;;;;12.75;100.00;100010.30;2789152;85;21073;-93
2022/10/02 18:31:40;;;;;;;4.90;3.12;;;;;;;12.70;100.00;100010.73;2703783;87;21075;-92
2022/10/02 18:35:56;;;;;;;4.70;2.45;;;;;;;12.64;100.00;100008.66;2709235;86;21146;-93
2022/10/02 18:40:21;;;;;;;4.30;2.87;;;;;;;12.59;100.00;100012.27;2705116;87;21133;-93
2022/10/02 18:44:51;;;;;;;7.17;5.03;;;;;;;12.46;100.00;100015.23;2698891;86;21598;-92
2022/10/02 18:49:18;;;;;;;9.93;5.80;;;;;;;12.49;100.00;100013.63;2703292;87;21080;-91
2022/10/02 18:53:44;;;;;;;6.60;3.58;;;;;;;12.50;100.00;100031.80;2686260;86;21107;-93
2022/10/02 18:58:08;;;;;;;8.95;3.17;;;;;;;12.45;100.00;100029.55;2693610;86;21059;-92
2022/10/02 19:02:43;;;;;;;6.78;4.20;;;;;;;12.45;100.00;100035.39;2688550;86;21694;-93
2022/10/02 19:07:05;;;;;;;6.90;3.37;;;;;;;12.44;100.00;100037.20;2626403;89;21583;-93
2022/10/02 19:11:15;;;;;;;6.80;4.10;;;;;;;12.38;100.00;100049.31;2588487;90;21051;-91
2022/10/02 19:15:26;;;;;;;6.78;3.27;;;;;;;12.37;100.00;100036.94;2577742;92;21149;-93
2022/10/02 19:19:29;;;;;;;3.05;2.75;;;;;;;12.37;100.00;100043.61;2550049;91;21183;-93
2022/10/02 19:23:37;;;;;;;6.12;2.83;;;;;;;12.39;100.00;100056.33;2593956;90;21173;-93
2022/10/02 19:27:44;;;;;;;10.55;3.33;;;;;;;12.29;100.00;100055.49;2582868;90;21139;-93
2022/10/02 19:31:45;;;;;;;6.90;3.22;;;;;;;12.31;100.00;100072.70;2592324;90;21062;-91
2022/10/02 19:35:47;;;;;;;8.05;2.83;;;;;;;12.31;100.00;100072.19;2534736;91;21064;-92
2022/10/02 19:39:55;;;;;;;3.95;2.50;;;;;;;12.25;100.00;100074.93;2562680;91;21637;-92
2022/10/02 19:44:05;;;;;;;6.83;2.55;;;;;;;12.36;100.00;100081.11;2663360;87;21041;-93
2022/10/02 19:48:10;;;;;;;8.58;2.77;;;;;;;12.23;100.00;100081.41;2744378;86;21613;-93
2022/10/02 19:52:39;;;;;;;4.25;3.45;;;;;;;12.22;100.00;100086.39;2745334;86;21132;-93
2022/10/02 19:56:43;;;;;;;8.50;2.75;;;;;;;12.28;100.00;100081.81;2723922;86;21039;-92
2022/10/02 20:00:44;;;;;;;3.30;2.52;;;;;;;12.26;100.00;100091.78;2739852;86;21045;-92
2022/10/02 20:04:46;;;;;;;6.33;2.72;;;;;;;12.26;100.00;100081.95;2751650;85;21017;-93
2022/10/02 20:09:02;;;;;;;3.00;2.37;;;;;;;12.22;100.00;100090.39;2743500;85;21050;-93
2022/10/02 20:13:15;;;;;;;6.47;3.52;;;;;;;12.11;100.00;100092.71;2745722;86;21205;-93
2022/10/02 20:17:17;;;;;;;4.08;3.50;;;;;;;12.01;100.00;100094.05;2737768;85;21056;-93
2022/10/02 20:21:24;;;;;;;10.32;4.97;;;;;;;11.93;100.00;100096.05;2744011;86;21031;-92
2022/10/02 20:25:30;;;;;;;4.95;3.42;;;;;;;11.83;100.00;100109.36;2753938;85;21105;-92
2022/10/02 20:29:36;;;;;;;5.05;2.90;;;;;;;11.71;100.00;100108.64;2753255;85;21089;-93
2022/10/02 20:33:54;;;;;;;6.05;3.98;;;;;;;11.68;100.00;100113.39;2753026;84;21128;-93